createdAt,value
2022-12-09T06:01:11.354Z,16.42
2022-12-09T06:12:09.571Z,11.60
2022-12-09T06:14:37.094Z,11.93
2022-12-09T06:17:03.941Z,11.90
2022-12-09T06:19:31.815Z,12.88
2022-12-09T06:21:58.978Z,13.18
2022-12-09T06:24:26.361Z,12.88
2022-12-09T06:26:54.407Z,13.25
2022-12-09T06:29:21.888Z,13.32
2022-12-09T06:31:48.810Z,12.93
2022-12-09T06:34:16.482Z,13.15
2022-12-09T06:36:43.563Z,12.82
2022-12-09T06:39:11.366Z,12.88
2022-12-09T06:41:41.369Z,13.50
2022-12-09T06:44:11.009Z,14.73
2022-12-09T06:46:37.807Z,14.93
2022-12-09T06:49:05.572Z,13.77
2022-12-09T06:51:32.643Z,15.32
2022-12-09T06:53:59.914Z,15.55
2022-12-09T06:56:27.130Z,13.88
2022-12-09T06:58:54.763Z,13.40
2022-12-09T07:01:24.115Z,13.93
2022-12-09T07:03:55.379Z,14.23
2022-12-09T07:06:37.318Z,13.57
2022-12-09T07:09:10.630Z,13.95
2022-12-09T07:11:37.833Z,20.15
2022-12-09T07:14:05.313Z,18.05
2022-12-09T07:16:32.145Z,16.13
2022-12-09T07:19:00.284Z,14.18
2022-12-09T07:21:28.358Z,13.90
2022-12-09T07:23:56.031Z,13.02
2022-12-09T07:26:22.881Z,14.55
2022-12-09T07:28:51.191Z,12.70
2022-12-09T07:31:26.798Z,14.88
2022-12-09T07:33:56.443Z,19.70
2022-12-09T07:36:25.832Z,22.77
2022-12-09T07:38:57.215Z,33.05
2022-12-09T07:41:24.449Z,28.77
2022-12-09T07:43:51.775Z,20.67
2022-12-09T07:46:20.780Z,19.80
2022-12-09T07:48:49.239Z,19.80
2022-12-09T07:51:17.205Z,22.20
2022-12-09T07:53:45.408Z,16.95
2022-12-09T07:56:17.701Z,13.70
2022-12-09T07:58:48.001Z,13.00
2022-12-09T08:01:21.711Z,15.13
2022-12-09T08:03:50.497Z,15.10
2022-12-09T08:06:20.481Z,14.98
2022-12-09T08:08:49.334Z,16.35
2022-12-09T08:11:24.442Z,14.95
2022-12-09T08:13:52.461Z,15.25
2022-12-09T08:16:22.742Z,16.25
2022-12-09T08:18:51.524Z,17.30
2022-12-09T08:21:22.111Z,17.30
2022-12-09T08:23:50.163Z,17.80
2022-12-09T08:26:20.641Z,21.15
2022-12-09T08:28:48.548Z,18.95
2022-12-09T08:31:22.240Z,18.45
2022-12-09T08:33:49.921Z,21.15
2022-12-09T08:36:23.088Z,20.17
2022-12-09T08:38:50.940Z,19.63
2022-12-09T08:41:36.313Z,17.88
2022-12-09T08:44:08.874Z,16.33
2022-12-09T08:46:38.192Z,17.48
2022-12-09T08:49:05.840Z,20.33
2022-12-09T08:51:33.976Z,20.08
2022-12-09T08:54:02.373Z,19.05
2022-12-09T08:56:29.887Z,19.23
2022-12-09T08:58:56.617Z,19.27
2022-12-09T09:01:26.851Z,18.17
2022-12-09T09:03:53.843Z,17.70
2022-12-09T09:06:21.196Z,18.00
2022-12-09T09:08:48.829Z,18.10
2022-12-09T09:11:19.758Z,20.45
2022-12-09T09:13:49.208Z,17.70
2022-12-09T09:16:19.388Z,18.98
2022-12-09T09:18:47.661Z,17.88
2022-12-09T09:21:16.869Z,20.25
2022-12-09T09:23:44.627Z,20.20
2022-12-09T09:26:16.692Z,19.98
2022-12-09T09:28:44.553Z,18.95
2022-12-09T09:31:14.504Z,19.50
2022-12-09T09:33:43.569Z,20.08
2022-12-09T09:36:19.488Z,20.42
2022-12-09T09:38:47.779Z,20.85
2022-12-09T09:41:56.517Z,23.80
2022-12-09T09:44:28.905Z,21.53
2022-12-09T09:46:57.757Z,22.58
2022-12-09T09:49:36.500Z,21.52
2022-12-09T09:52:10.309Z,21.17
2022-12-09T09:54:37.913Z,20.08
2022-12-09T09:57:57.548Z,20.08
2022-12-09T10:03:12.376Z,20.92
2022-12-09T10:06:17.585Z,20.98
2022-12-09T10:09:04.823Z,20.00
2022-12-09T10:11:39.658Z,19.25
2022-12-09T10:14:16.184Z,20.08
2022-12-09T10:17:03.437Z,19.08
2022-12-09T10:19:42.679Z,18.42
2022-12-09T10:22:18.179Z,20.50
2022-12-09T10:24:51.124Z,19.85
2022-12-09T10:27:45.994Z,19.77
2022-12-09T10:30:15.800Z,17.00
2022-12-09T10:32:44.091Z,17.55
2022-12-09T10:35:14.368Z,19.20
2022-12-09T10:37:42.269Z,16.58
2022-12-09T10:40:12.175Z,16.77
2022-12-09T10:43:11.070Z,18.48
2022-12-09T10:46:16.914Z,16.85
2022-12-09T10:48:43.152Z,16.35
2022-12-09T10:51:11.384Z,16.65
2022-12-09T10:54:06.993Z,16.42
2022-12-09T10:56:36.823Z,16.63
2022-12-09T10:59:24.087Z,14.00
2022-12-09T11:02:13.569Z,17.08
2022-12-09T11:04:43.437Z,16.88
2022-12-09T11:07:19.915Z,17.05
2022-12-09T11:09:59.064Z,16.10
2022-12-09T11:12:27.355Z,15.57
2022-12-09T11:15:01.384Z,16.23
2022-12-09T11:17:38.386Z,16.15
2022-12-09T11:20:05.687Z,15.77
2022-12-09T11:22:41.467Z,16.17
2022-12-09T11:25:11.869Z,17.17
2022-12-09T11:27:53.252Z,16.15
2022-12-09T11:30:22.314Z,16.15
2022-12-09T11:33:19.603Z,17.55
2022-12-09T11:35:46.906Z,15.70
2022-12-09T11:38:17.728Z,16.77
2022-12-09T11:41:13.290Z,17.35
2022-12-09T11:43:54.759Z,16.58
2022-12-09T11:46:27.645Z,16.85
2022-12-09T11:49:12.925Z,19.08
2022-12-09T11:51:46.843Z,18.45
2022-12-09T11:54:22.450Z,17.85
2022-12-09T11:56:51.199Z,16.83
2022-12-09T11:59:26.409Z,17.33
2022-12-09T12:02:11.245Z,15.95
2022-12-09T12:05:00.160Z,15.48
2022-12-09T12:22:48.006Z,16.52
2022-12-09T12:25:36.947Z,15.82
2022-12-09T12:28:22.423Z,16.00
2022-12-09T12:31:07.559Z,14.75
2022-12-09T12:34:23.480Z,15.18
2022-12-09T12:36:53.339Z,17.05
2022-12-09T12:39:38.170Z,17.30
2022-12-09T12:42:35.878Z,15.07
2022-12-09T12:45:36.845Z,15.15
2022-12-09T12:48:10.383Z,17.38
2022-12-09T12:50:54.280Z,17.38
2022-12-09T12:53:37.391Z,16.23
2022-12-09T12:56:47.066Z,19.00
2022-12-09T12:59:33.845Z,17.85
2022-12-09T13:02:28.603Z,16.88
2022-12-09T13:05:04.015Z,15.18
2022-12-09T13:07:44.220Z,15.98
2022-12-09T13:10:19.522Z,16.80
2022-12-09T13:12:56.522Z,20.02
2022-12-09T13:15:32.497Z,16.50
2022-12-09T13:18:03.967Z,16.73
2022-12-09T13:20:40.958Z,17.83
2022-12-09T13:23:32.344Z,16.80
2022-12-09T13:26:06.862Z,18.33
2022-12-09T13:28:49.802Z,15.40
2022-12-09T13:31:20.462Z,15.82
2022-12-09T13:34:04.845Z,16.25
2022-12-09T13:36:41.943Z,16.67
2022-12-09T13:39:13.675Z,18.90
2022-12-09T13:42:01.174Z,17.02
2022-12-09T13:44:34.795Z,16.10
2022-12-09T13:47:26.162Z,14.07
2022-12-09T13:49:59.411Z,16.60
2022-12-09T13:52:41.031Z,16.98
2022-12-09T13:55:31.925Z,16.48
2022-12-09T13:58:16.874Z,15.73
2022-12-09T14:01:04.321Z,16.90
2022-12-09T14:03:34.688Z,15.93
2022-12-09T14:06:18.491Z,14.85
2022-12-09T14:08:50.985Z,15.05
2022-12-09T14:11:47.330Z,16.10
2022-12-09T14:14:23.325Z,16.90
2022-12-09T14:16:51.658Z,17.08
2022-12-09T14:19:24.574Z,16.27
2022-12-09T14:22:25.119Z,16.25
2022-12-09T14:24:54.101Z,17.65
2022-12-09T14:27:31.908Z,16.20
2022-12-09T14:30:21.731Z,19.08
2022-12-09T14:32:54.720Z,17.40
2022-12-09T14:35:46.616Z,16.40
2022-12-09T14:38:28.397Z,17.33
2022-12-09T14:41:15.790Z,18.48
2022-12-09T14:44:03.072Z,18.98
2022-12-09T14:46:36.191Z,16.02
2022-12-09T14:49:13.515Z,17.88
2022-12-09T14:51:54.231Z,18.00
2022-12-09T14:54:28.391Z,20.30
2022-12-09T14:56:59.695Z,19.35
2022-12-09T14:59:30.511Z,18.48
2022-12-09T15:01:59.942Z,18.48
2022-12-09T15:07:16.137Z,17.40
2022-12-09T15:10:04.690Z,19.23
2022-12-09T15:12:43.631Z,24.88
2022-12-09T15:15:10.560Z,22.17
2022-12-09T15:17:56.914Z,19.75
2022-12-09T15:20:39.394Z,19.77
2022-12-09T15:23:17.655Z,18.98
2022-12-09T15:25:54.223Z,20.95
2022-12-09T15:28:26.561Z,29.80
2022-12-09T15:31:06.621Z,30.67
2022-12-09T15:33:49.437Z,27.25
2022-12-09T15:36:22.499Z,25.52
2022-12-09T15:39:07.155Z,22.52
2022-12-09T15:42:01.715Z,20.25
2022-12-09T15:44:33.301Z,19.23
2022-12-09T15:47:05.629Z,19.77
2022-12-09T15:49:45.691Z,19.25
2022-12-09T15:52:15.018Z,19.83
2022-12-09T15:54:44.934Z,19.25
2022-12-09T15:57:15.851Z,18.48
2022-12-09T15:59:50.920Z,19.33
2022-12-09T16:02:26.710Z,17.85
2022-12-09T16:04:55.345Z,19.40
2022-12-09T16:07:25.472Z,21.33
2022-12-09T16:10:01.630Z,23.08
2022-12-09T16:12:32.775Z,24.90
2022-12-09T16:14:59.485Z,21.05
2022-12-09T16:17:29.552Z,21.00
2022-12-09T16:19:56.344Z,19.98
2022-12-09T16:22:28.288Z,18.77
2022-12-09T16:25:14.084Z,19.80
2022-12-09T16:27:46.494Z,18.75
2022-12-09T16:30:16.255Z,20.20
2022-12-09T16:32:46.179Z,21.48
2022-12-09T16:37:58.063Z,22.98
2022-12-09T16:40:24.562Z,25.92
2022-12-09T16:43:15.739Z,28.52
2022-12-09T16:45:50.704Z,32.25
2022-12-09T16:48:19.320Z,35.97
2022-12-09T16:50:48.741Z,36.88
2022-12-09T16:55:56.881Z,31.13
2022-12-09T16:58:23.863Z,29.23
2022-12-09T17:00:50.940Z,27.02
2022-12-09T17:03:21.762Z,26.00
2022-12-09T17:05:48.400Z,23.73
2022-12-09T17:08:15.302Z,23.17
2022-12-09T17:10:42.341Z,25.73
2022-12-09T17:13:12.366Z,25.33
2022-12-09T17:15:41.533Z,22.67
2022-12-09T17:18:09.648Z,24.80
2022-12-09T17:20:37.740Z,23.73
2022-12-09T17:23:05.609Z,20.73
2022-12-09T17:25:33.222Z,21.27
2022-12-09T17:28:02.636Z,26.40
2022-12-09T17:30:29.579Z,23.52
2022-12-09T17:32:59.135Z,22.27
2022-12-09T17:35:25.863Z,24.50
2022-12-09T17:37:53.038Z,30.17
2022-12-09T17:40:19.626Z,32.83
2022-12-09T17:42:46.813Z,39.38
2022-12-09T17:45:13.447Z,36.10
2022-12-09T17:47:40.695Z,32.67
2022-12-09T17:50:07.670Z,30.65
2022-12-09T17:52:35.703Z,30.15
2022-12-09T17:55:02.338Z,23.45
2022-12-09T17:57:29.281Z,19.75
2022-12-09T17:59:56.534Z,20.75
2022-12-09T18:02:23.698Z,17.42
2022-12-09T18:04:50.852Z,17.58
2022-12-09T18:07:17.596Z,17.20
2022-12-09T18:09:47.523Z,18.75
2022-12-09T18:12:16.511Z,19.95
2022-12-09T18:14:43.698Z,21.27
2022-12-09T18:17:10.275Z,20.25
2022-12-09T18:19:38.094Z,23.38
2022-12-09T18:22:04.728Z,20.15
2022-12-09T18:24:33.683Z,23.77
2022-12-09T18:27:00.307Z,21.42
2022-12-09T18:29:27.547Z,24.30
2022-12-09T18:31:57.410Z,24.38
2022-12-09T18:34:26.082Z,25.13
2022-12-09T18:36:52.759Z,29.65
2022-12-09T18:39:20.279Z,22.98
2022-12-09T18:41:47.553Z,25.20
2022-12-09T18:44:16.307Z,25.48
2022-12-09T18:46:48.582Z,21.87
2022-12-09T18:49:24.158Z,21.05
2022-12-09T18:51:52.623Z,19.92
2022-12-09T18:54:23.675Z,18.17
2022-12-09T18:56:51.326Z,18.25
2022-12-09T18:59:20.919Z,19.20
2022-12-09T19:01:48.476Z,21.75
2022-12-09T19:04:19.351Z,19.98
2022-12-09T19:06:48.146Z,18.65
2022-12-09T19:09:20.114Z,21.52
2022-12-09T19:11:49.389Z,20.65
2022-12-09T19:14:17.802Z,20.92
2022-12-09T19:16:45.689Z,20.35
2022-12-09T19:19:14.508Z,21.98
2022-12-09T19:21:42.293Z,23.83
2022-12-09T19:24:31.362Z,22.83
2022-12-09T19:26:58.638Z,23.13
2022-12-09T19:29:27.849Z,20.48
2022-12-09T19:31:57.429Z,21.42
2022-12-09T19:34:28.624Z,23.20
2022-12-09T19:36:58.587Z,23.80
2022-12-09T19:42:01.535Z,21.40
2022-12-09T19:44:59.811Z,21.45
2022-12-09T19:47:15.692Z,18.88
2022-12-09T19:49:44.265Z,22.08
2022-12-09T19:52:16.051Z,20.70
2022-12-09T19:54:42.666Z,20.10
2022-12-09T19:57:09.554Z,18.48
2022-12-09T19:59:37.572Z,20.10
2022-12-09T20:02:06.711Z,19.85
2022-12-09T20:04:51.209Z,20.52
2022-12-09T20:07:20.290Z,20.23
2022-12-09T20:09:47.417Z,20.45
2022-12-09T20:12:14.794Z,20.10
2022-12-09T20:14:41.948Z,21.13
2022-12-09T20:17:09.211Z,20.50
2022-12-09T20:19:36.645Z,19.17
2022-12-09T20:22:04.685Z,20.42
2022-12-09T20:24:31.288Z,19.60
2022-12-09T20:26:58.801Z,19.52
2022-12-09T20:29:25.441Z,19.52
2022-12-09T20:31:53.493Z,22.40
2022-12-09T20:34:20.105Z,21.33
2022-12-09T20:36:47.499Z,22.92
2022-12-09T20:39:20.244Z,23.83
2022-12-09T20:41:49.058Z,22.50
2022-12-09T20:44:16.749Z,21.83
2022-12-09T20:46:50.091Z,24.38
2022-12-09T20:49:17.301Z,24.98
2022-12-09T20:51:45.567Z,22.80
2022-12-09T20:54:12.876Z,24.40
2022-12-09T20:56:40.728Z,25.52
2022-12-09T20:59:09.929Z,25.70
2022-12-09T21:01:38.466Z,25.88
2022-12-09T21:04:06.779Z,27.45
2022-12-09T21:06:37.167Z,27.85
2022-12-09T21:09:06.666Z,34.78
2022-12-09T21:11:34.339Z,30.50
2022-12-09T21:14:03.467Z,30.45
2022-12-09T21:16:32.826Z,26.52
2022-12-09T21:19:02.504Z,26.92
2022-12-09T21:21:31.894Z,24.90
2022-12-09T21:24:00.499Z,22.85
2022-12-09T21:26:27.843Z,22.00
2022-12-09T21:28:55.066Z,19.90
